Terminal Aerodrome Forecast
Issued by NWS Bismarck, ND

Home | Current Version | Previous Version | Graphics & Text | Print | Product List | Glossary On
Versions: 1 2 3 4 5 6 7 8 9 10 11 12 13 14 15 16 17 18 19 20
000
FTUS43 KBIS 301700
TAFISN
TAF
KISN 301740Z 3018/0118 07006KT P6SM -RA BKN012 OVC090
     FM010000 05005KT 6SM SHRA OVC015
     FM010300 35004KT 6SM SHRA OVC015
     FM010600 28007KT 6SM -SHRA OVC008
     FM010900 29012KT 6SM -SHRA OVC030
     FM011200 29014KT P6SM BKN040=

USA.gov is the U.S. government's official web portal to all federal, state and local government web resources and services.